Time;durP1;ratioP1;P1;durP2;ratioP2;P2;SDS_P1;SDS_P2;PMS_P1;PMS_P2;Temp;Humidity;BMP_temperature;BMP_pressure;BME280_temperature;BME280_humidity;BME280_pressure;Samples;Min_cycle;Max_cycle;Signal;HPM_P1;HPM_P2
2022/08/11 00:01:52;;;;;;;;;;;20.90;99.90;;;;;;4842638;29;20370;-36
2022/08/11 00:04:19;;;;;;;;;;;20.90;99.90;;;;;;4843879;29;19923;-37
2022/08/11 00:06:46;;;;;;;;;;;20.90;99.90;;;;;;4845667;29;20361;-39
2022/08/11 00:09:15;;;;;;;;;;;20.90;99.90;;;;;;4857419;29;20619;-33
2022/08/11 00:11:51;;;;;;;;;;;20.90;99.90;;;;;;4839914;29;19960;-38
2022/08/11 00:14:43;;;;;;;;;;;20.90;99.90;;;;;;4843819;29;19922;-39
2022/08/11 00:17:11;;;;;;;;;;;20.90;99.90;;;;;;4835760;29;19912;-38
2022/08/11 00:19:40;;;;;;;;;;;20.80;99.90;;;;;;4844417;29;19972;-38
2022/08/11 00:22:07;;;;;;;;;;;20.80;99.90;;;;;;4850865;29;19912;-37
2022/08/11 00:24:34;;;;;;;;;;;20.80;99.90;;;;;;4853348;29;19919;-37
2022/08/11 00:26:59;;;;;;;;;;;20.80;99.90;;;;;;4839837;29;20019;-38
2022/08/11 00:29:25;;;;;;;;;;;20.70;99.90;;;;;;4842137;29;20393;-36
2022/08/11 00:31:54;;;;;;;;;;;20.80;99.90;;;;;;4846351;29;20342;-40
2022/08/11 00:34:28;;;;;;;;;;;20.70;99.90;;;;;;4849498;29;19912;-37
2022/08/11 00:36:56;;;;;;;;;;;20.60;99.90;;;;;;4846620;29;19930;-39
2022/08/11 00:39:22;;;;;;;;;;;20.60;99.90;;;;;;4853279;29;20227;-38
2022/08/11 00:42:00;;;;;;;;;;;20.60;99.90;;;;;;4851272;29;19935;-39
2022/08/11 00:44:34;;;;;;;;;;;20.60;99.90;;;;;;4844354;29;20206;-38
2022/08/11 00:47:15;;;;;;;;;;;20.60;99.90;;;;;;4849292;29;20337;-38
2022/08/11 00:49:51;;;;;;;;;;;20.60;99.90;;;;;;4842793;29;20642;-39
2022/08/11 00:52:32;;;;;;;;;;;20.60;99.90;;;;;;4846999;29;20416;-38
2022/08/11 00:55:00;;;;;;;;;;;20.60;99.90;;;;;;4846851;29;19912;-35
2022/08/11 00:57:44;;;;;;;;;;;20.50;99.90;;;;;;4846767;29;20362;-39
2022/08/11 01:00:12;;;;;;;;;;;20.50;99.90;;;;;;4848027;29;19920;-34
2022/08/11 01:02:40;;;;;;;;;;;20.50;99.90;;;;;;4845032;29;20453;-42
2022/08/11 01:05:06;;;;;;;;;;;20.40;99.90;;;;;;4842050;29;20039;-37
2022/08/11 01:07:34;;;;;;;;;;;20.30;99.90;;;;;;4844981;29;20377;-30
2022/08/11 01:10:18;;;;;;;;;;;20.30;99.90;;;;;;4857137;29;19912;-32
2022/08/11 01:13:16;;;;;;;;;;;20.20;99.90;;;;;;4850276;29;19913;-32
2022/08/11 01:16:05;;;;;;;;;;;20.20;99.90;;;;;;4821553;29;20437;-33
2022/08/11 01:18:43;;;;;;;;;;;20.20;99.90;;;;;;4841224;29;19919;-35
2022/08/11 01:21:12;;;;;;;;;;;20.10;99.90;;;;;;4851365;29;19913;-39
2022/08/11 01:23:48;;;;;;;;;;;20.10;99.90;;;;;;4842974;29;20503;-39
2022/08/11 01:26:23;;;;;;;;;;;20.10;99.90;;;;;;4853032;29;19916;-36
2022/08/11 01:29:02;;;;;;;;;;;20.00;99.90;;;;;;4842470;29;19920;-35
2022/08/11 01:31:38;;;;;;;;;;;20.00;99.90;;;;;;4850158;29;19912;-37
2022/08/11 01:34:19;;;;;;;;;;;20.00;99.90;;;;;;4831774;29;19954;-37
2022/08/11 01:36:54;;;;;;;;;;;20.00;99.90;;;;;;4846898;29;19990;-33
2022/08/11 01:39:48;;;;;;;;;;;20.00;99.90;;;;;;4829253;29;19919;-39
2022/08/11 01:45:21;;;;;;;;;;;19.90;99.90;;;;;;4852044;29;19926;-39
2022/08/11 01:48:02;;;;;;;;;;;20.00;99.90;;;;;;4844641;29;19912;-38
2022/08/11 01:50:39;;;;;;;;;;;19.90;99.90;;;;;;4846932;29;19921;-37
2022/08/11 01:53:24;;;;;;;;;;;19.90;99.90;;;;;;4842754;29;19991;-34
2022/08/11 01:56:11;;;;;;;;;;;19.90;99.90;;;;;;4853227;29;20380;-35
2022/08/11 01:58:53;;;;;;;;;;;19.90;99.90;;;;;;4841471;29;19920;-33
2022/08/11 02:01:37;;;;;;;;;;;19.90;99.90;;;;;;4848184;29;20285;-38
2022/08/11 02:04:21;;;;;;;;;;;19.80;99.90;;;;;;4845242;29;20389;-40
2022/08/11 02:06:53;;;;;;;;;;;19.80;99.90;;;;;;4844948;29;19916;-34
2022/08/11 02:09:28;;;;;;;;;;;19.70;99.90;;;;;;4843665;29;20353;-38
2022/08/11 02:11:57;;;;;;;;;;;19.80;99.90;;;;;;4857073;29;19923;-36
2022/08/11 02:14:28;;;;;;;;;;;19.70;99.90;;;;;;4845228;29;20429;-35
2022/08/11 02:16:53;;;;;;;;;;;19.70;99.90;;;;;;4847044;29;19927;-38
2022/08/11 02:25:01;;;;;;;;;;;19.60;99.90;;;;;;4850685;29;20371;-33
2022/08/11 02:27:35;;;;;;;;;;;19.60;99.90;;;;;;4842365;29;19975;-33
2022/08/11 02:30:07;;;;;;;;;;;19.60;99.90;;;;;;4848039;29;19916;-32
2022/08/11 02:35:26;;;;;;;;;;;19.60;99.90;;;;;;4851792;29;19923;-38
2022/08/11 02:40:56;;;;;;;;;;;19.60;99.90;;;;;;4848725;29;20249;-33
2022/08/11 02:43:27;;;;;;;;;;;19.50;99.90;;;;;;4855619;29;20555;-46
2022/08/11 02:45:56;;;;;;;;;;;19.50;99.90;;;;;;4849170;29;20408;-38
2022/08/11 02:51:12;;;;;;;;;;;19.50;99.90;;;;;;4842968;29;19919;-38
2022/08/11 02:53:56;;;;;;;;;;;19.50;99.90;;;;;;4852158;29;20011;-37
2022/08/11 02:56:34;;;;;;;;;;;19.50;99.90;;;;;;4848693;29;20390;-36
2022/08/11 03:01:54;;;;;;;;;;;19.40;99.90;;;;;;4844363;29;19975;-40
2022/08/11 03:04:39;;;;;;;;;;;19.50;99.90;;;;;;4843061;29;20301;-38
2022/08/11 03:07:20;;;;;;;;;;;19.40;99.90;;;;;;4848077;29;20388;-39
2022/08/11 03:09:48;;;;;;;;;;;19.40;99.90;;;;;;4853651;29;19912;-35
2022/08/11 03:18:16;;;;;;;;;;;19.40;99.90;;;;;;4847716;29;19943;-35
2022/08/11 03:20:50;;;;;;;;;;;19.40;99.90;;;;;;4843034;29;19919;-39
2022/08/11 03:23:28;;;;;;;;;;;19.40;99.90;;;;;;4843620;29;19916;-38
2022/08/11 03:26:00;;;;;;;;;;;19.30;99.90;;;;;;4850093;29;19958;-35
2022/08/11 03:28:29;;;;;;;;;;;19.40;99.90;;;;;;4849996;29;19952;-48
2022/08/11 03:31:07;;;;;;;;;;;19.30;99.90;;;;;;4845775;29;19916;-36
2022/08/11 03:36:33;;;;;;;;;;;19.30;99.90;;;;;;4846472;29;19935;-37
2022/08/11 03:39:05;;;;;;;;;;;19.30;99.90;;;;;;4850817;29;20456;-36
2022/08/11 03:41:44;;;;;;;;;;;19.30;99.90;;;;;;4840900;29;20350;-35
2022/08/11 03:44:10;;;;;;;;;;;19.20;99.90;;;;;;4840488;29;20485;-36
2022/08/11 03:46:55;;;;;;;;;;;19.20;99.90;;;;;;4841961;29;20015;-38
2022/08/11 03:49:32;;;;;;;;;;;19.20;99.90;;;;;;4841384;29;19912;-38
2022/08/11 03:52:06;;;;;;;;;;;19.20;99.90;;;;;;4842099;29;19948;-32
2022/08/11 03:54:55;;;;;;;;;;;19.20;99.90;;;;;;4847803;29;19968;-35
2022/08/11 03:57:35;;;;;;;;;;;19.20;99.90;;;;;;4816404;29;19965;-36
2022/08/11 04:00:10;;;;;;;;;;;19.20;99.90;;;;;;4842944;29;19939;-35
2022/08/11 04:02:54;;;;;;;;;;;19.20;99.90;;;;;;4840205;29;19924;-35
2022/08/11 04:05:34;;;;;;;;;;;19.10;99.90;;;;;;4838342;29;20061;-35
2022/08/11 04:08:18;;;;;;;;;;;19.00;99.90;;;;;;4842704;29;19912;-35
2022/08/11 04:11:02;;;;;;;;;;;19.00;99.90;;;;;;4840838;29;20181;-41
2022/08/11 04:13:46;;;;;;;;;;;19.00;99.90;;;;;;4847479;29;20082;-34
2022/08/11 04:16:28;;;;;;;;;;;18.90;99.90;;;;;;4841844;29;19912;-36
2022/08/11 04:18:57;;;;;;;;;;;18.90;99.90;;;;;;4844199;29;20395;-36
2022/08/11 04:21:40;;;;;;;;;;;18.90;99.90;;;;;;4849272;29;20010;-34
2022/08/11 04:24:12;;;;;;;;;;;18.90;99.90;;;;;;4839516;29;19941;-40
2022/08/11 04:26:56;;;;;;;;;;;19.00;99.90;;;;;;4841971;29;19935;-35
2022/08/11 04:29:43;;;;;;;;;;;18.90;99.90;;;;;;4850313;29;20250;-41
2022/08/11 04:32:27;;;;;;;;;;;18.90;99.90;;;;;;4835166;29;19912;-37
2022/08/11 04:35:01;;;;;;;;;;;18.90;99.90;;;;;;4844428;29;19912;-34
2022/08/11 04:37:45;;;;;;;;;;;18.90;99.90;;;;;;4837342;29;19916;-38
2022/08/11 04:40:18;;;;;;;;;;;18.80;99.90;;;;;;4838158;29;21633;-35
2022/08/11 04:45:32;;;;;;;;;;;18.80;99.90;;;;;;4840936;29;19995;-37
2022/08/11 05:02:40;;;;;;;;;;;18.80;99.90;;;;;;4846432;29;19920;-36
2022/08/11 05:05:30;;;;;;;;;;;18.80;99.90;;;;;;4845033;29;20318;-40
2022/08/11 05:08:14;;;;;;;;;;;18.90;99.90;;;;;;4840060;29;20273;-38
2022/08/11 05:10:58;;;;;;;;;;;18.90;99.90;;;;;;4837972;29;20029;-38
2022/08/11 05:36:04;;;;;;;;;;;19.20;99.90;;;;;;4843617;29;19927;-45
2022/08/11 05:57:54;;;;;;;;;;;19.70;99.90;;;;;;4849880;29;19935;-37
2022/08/11 06:00:20;;;;;;;;;;;19.80;99.90;;;;;;4848669;29;20365;-39
2022/08/11 06:02:47;;;;;;;;;;;19.90;99.90;;;;;;4851642;29;19912;-38
2022/08/11 06:05:14;;;;;;;;;;;20.00;99.90;;;;;;4841759;29;20400;-38
2022/08/11 06:07:39;;;;;;;;;;;20.00;99.90;;;;;;4841082;29;19912;-36
2022/08/11 06:10:05;;;;;;;;;;;20.10;99.90;;;;;;4843256;29;19968;-38
2022/08/11 06:12:32;;;;;;;;;;;20.20;99.90;;;;;;4847678;29;20003;-38
2022/08/11 06:15:04;;;;;;;;;;;20.30;99.90;;;;;;4847629;29;20229;-38
2022/08/11 06:17:30;;;;;;;;;;;20.40;99.90;;;;;;4827021;29;20015;-36
2022/08/11 06:19:59;;;;;;;;;;;20.50;99.90;;;;;;4839884;29;20053;-35
2022/08/11 06:22:26;;;;;;;;;;;20.60;99.90;;;;;;4842248;29;20401;-35
2022/08/11 06:24:56;;;;;;;;;;;20.70;99.90;;;;;;4844719;29;19933;-32
2022/08/11 06:27:25;;;;;;;;;;;20.90;99.90;;;;;;4840866;29;19917;-39
2022/08/11 06:29:51;;;;;;;;;;;20.90;99.90;;;;;;4851446;29;20258;-34
2022/08/11 06:32:17;;;;;;;;;;;21.00;99.90;;;;;;4846889;29;19916;-39
2022/08/11 06:35:09;;;;;;;;;;;21.20;99.90;;;;;;4848304;29;19916;-37
2022/08/11 06:37:42;;;;;;;;;;;21.40;99.90;;;;;;4828839;29;20381;-38
2022/08/11 06:40:15;;;;;;;;;;;21.50;99.90;;;;;;4840158;29;19929;-34
2022/08/11 06:42:50;;;;;;;;;;;21.70;99.90;;;;;;4851111;29;20365;-34
2022/08/11 06:45:51;;;;;;;;;;;21.80;99.90;;;;;;4854453;29;19975;-39
2022/08/11 06:48:19;;;;;;;;;;;21.90;99.90;;;;;;4826266;29;19920;-34
2022/08/11 06:53:34;;;;;;;;;;;22.20;99.90;;;;;;4840384;29;20426;-34
2022/08/11 07:01:45;;;;;;;;;;;22.80;99.90;;;;;;4840735;29;19926;-39
2022/08/11 07:04:11;;;;;;;;;;;22.90;99.90;;;;;;4827827;29;19913;-36
2022/08/11 07:06:43;;;;;;;;;;;23.00;99.90;;;;;;4851043;29;19919;-39
2022/08/11 07:29:01;;;;;;;;;;;24.50;99.90;;;;;;4846144;29;19976;-39
2022/08/11 07:31:36;;;;;;;;;;;24.60;99.40;;;;;;4840247;29;19912;-38
2022/08/11 07:34:10;;;;;;;;;;;24.80;99.50;;;;;;4843350;29;19916;-35
2022/08/11 07:36:41;;;;;;;;;;;24.90;99.10;;;;;;4841028;29;19981;-40
2022/08/11 07:39:09;;;;;;;;;;;25.10;98.80;;;;;;4840528;29;19916;-39
2022/08/11 07:41:35;;;;;;;;;;;25.40;98.00;;;;;;4856526;29;19942;-40
2022/08/11 07:44:07;;;;;;;;;;;25.70;96.80;;;;;;4849331;29;20365;-43
2022/08/11 07:52:31;;;;;;;;;;;26.30;96.20;;;;;;4838566;29;19919;-38
2022/08/11 07:55:02;;;;;;;;;;;26.40;95.90;;;;;;4845435;29;19916;-39
2022/08/11 08:19:26;;;;;;;;;;;27.80;93.20;;;;;;4849971;29;19949;-35
2022/08/11 08:21:52;;;;;;;;;;;27.90;93.40;;;;;;4846293;29;20377;-36
2022/08/11 08:24:18;;;;;;;;;;;27.90;93.50;;;;;;4844036;29;20011;-40
2022/08/11 08:26:59;;;;;;;;;;;28.00;93.60;;;;;;4848535;29;20023;-38
2022/08/11 08:32:15;;;;;;;;;;;28.60;92.30;;;;;;4840146;29;19931;-37
2022/08/11 08:34:40;;;;;;;;;;;28.90;92.00;;;;;;4844661;29;20310;-39
2022/08/11 08:37:06;;;;;;;;;;;28.90;92.50;;;;;;4844851;29;19928;-35
2022/08/11 08:39:33;;;;;;;;;;;28.80;92.30;;;;;;4838206;29;19923;-37
2022/08/11 08:42:01;;;;;;;;;;;28.70;92.20;;;;;;4844668;29;19963;-39
2022/08/11 08:44:27;;;;;;;;;;;28.90;91.50;;;;;;4840689;29;19920;-36
2022/08/11 08:46:53;;;;;;;;;;;29.00;91.80;;;;;;4837613;29;19951;-47
2022/08/11 08:49:22;;;;;;;;;;;29.50;91.10;;;;;;4846234;29;19960;-38
2022/08/11 08:51:51;;;;;;;;;;;29.90;90.40;;;;;;4840331;29;19996;-38
2022/08/11 08:54:21;;;;;;;;;;;30.30;90.20;;;;;;4842090;29;19916;-39
2022/08/11 08:56:47;;;;;;;;;;;30.40;90.30;;;;;;4843538;29;19920;-49
2022/08/11 08:59:13;;;;;;;;;;;30.80;89.60;;;;;;4839297;29;19981;-40
2022/08/11 09:01:45;;;;;;;;;;;30.60;89.80;;;;;;4838634;29;20359;-40
2022/08/11 09:04:12;;;;;;;;;;;30.50;89.70;;;;;;4848069;29;19912;-40
2022/08/11 09:06:44;;;;;;;;;;;30.60;90.00;;;;;;4846043;29;19916;-41
2022/08/11 09:09:11;;;;;;;;;;;30.60;88.70;;;;;;4841890;29;20321;-40
2022/08/11 09:11:49;;;;;;;;;;;30.80;88.90;;;;;;4846718;29;20366;-38
2022/08/11 09:14:15;;;;;;;;;;;31.00;88.10;;;;;;4847182;29;19912;-36
2022/08/11 09:16:41;;;;;;;;;;;30.90;87.10;;;;;;4851446;29;19912;-39
2022/08/11 09:19:07;;;;;;;;;;;30.90;86.10;;;;;;4840580;29;20041;-38
2022/08/11 09:21:32;;;;;;;;;;;31.20;86.80;;;;;;4838854;29;20365;-38
2022/08/11 09:27:02;;;;;;;;;;;32.30;84.80;;;;;;4847602;29;19923;-42
2022/08/11 09:29:29;;;;;;;;;;;32.70;84.10;;;;;;4824775;29;19947;-40
2022/08/11 09:31:55;;;;;;;;;;;32.50;83.00;;;;;;4852011;29;19916;-38
2022/08/11 09:34:21;;;;;;;;;;;33.10;82.10;;;;;;4845072;29;19959;-41
2022/08/11 09:42:19;;;;;;;;;;;33.70;79.40;;;;;;4847298;29;20044;-34
2022/08/11 09:44:48;;;;;;;;;;;34.60;78.10;;;;;;4841995;29;19972;-36
2022/08/11 09:47:39;;;;;;;;;;;35.50;77.60;;;;;;4845753;29;20382;-39
2022/08/11 09:50:07;;;;;;;;;;;34.60;77.20;;;;;;4849467;29;19919;-44
2022/08/11 09:52:39;;;;;;;;;;;34.30;78.20;;;;;;4847930;29;19924;-36
2022/08/11 09:55:09;;;;;;;;;;;33.70;77.80;;;;;;4841387;29;19912;-39
2022/08/11 10:00:27;;;;;;;;;;;33.70;78.30;;;;;;4845287;29;19919;-38
2022/08/11 10:02:54;;;;;;;;;;;33.70;77.10;;;;;;4845003;29;19920;-40
2022/08/11 10:08:04;;;;;;;;;;;33.40;75.90;;;;;;4845628;29;20400;-36
2022/08/11 10:10:32;;;;;;;;;;;33.60;77.00;;;;;;4854760;29;20439;-39
2022/08/11 10:13:03;;;;;;;;;;;33.60;76.50;;;;;;4847518;29;19967;-39
2022/08/11 10:15:38;;;;;;;;;;;33.40;76.20;;;;;;4840189;29;20323;-39
2022/08/11 10:21:15;;;;;;;;;;;33.40;76.10;;;;;;4840402;29;20758;-37
2022/08/11 10:34:43;;;;;;;;;;;34.20;73.10;;;;;;4853101;29;19985;-39
2022/08/11 10:37:09;;;;;;;;;;;34.60;72.00;;;;;;4826165;29;20453;-37
2022/08/11 10:39:36;;;;;;;;;;;34.90;71.00;;;;;;4843163;29;19916;-39
2022/08/11 10:44:49;;;;;;;;;;;34.80;71.80;;;;;;4848971;29;19968;-40
2022/08/11 11:00:59;;;;;;;;;;;33.70;72.40;;;;;;4840300;29;19956;-37
2022/08/11 11:03:26;;;;;;;;;;;33.70;72.30;;;;;;4846422;29;19994;-40
2022/08/11 11:05:53;;;;;;;;;;;33.40;73.10;;;;;;4839449;29;19960;-38
2022/08/11 11:11:05;;;;;;;;;;;33.30;73.40;;;;;;4844595;29;19967;-40
2022/08/11 11:19:03;;;;;;;;;;;33.50;72.40;;;;;;4842613;29;20587;-40
2022/08/11 11:21:29;;;;;;;;;;;33.40;72.40;;;;;;4857981;29;20388;-39
2022/08/11 11:24:05;;;;;;;;;;;33.10;73.40;;;;;;4852896;29;20519;-34
2022/08/11 11:26:30;;;;;;;;;;;33.10;73.20;;;;;;4839177;29;19918;-37
2022/08/11 11:28:56;;;;;;;;;;;33.10;73.10;;;;;;4851618;29;20425;-39
2022/08/11 11:31:21;;;;;;;;;;;33.10;72.40;;;;;;4853952;29;19916;-49
2022/08/11 11:33:54;;;;;;;;;;;33.10;73.90;;;;;;4840957;29;19940;-40
2022/08/11 11:36:30;;;;;;;;;;;33.20;73.00;;;;;;4856437;29;20379;-35
2022/08/11 11:38:57;;;;;;;;;;;33.10;73.30;;;;;;4839009;29;20010;-37
2022/08/11 11:41:23;;;;;;;;;;;33.10;73.30;;;;;;4838932;29;19912;-39
2022/08/11 11:43:49;;;;;;;;;;;33.10;73.00;;;;;;4839277;29;20000;-45
2022/08/11 11:46:15;;;;;;;;;;;33.20;74.70;;;;;;4850281;29;20432;-38
2022/08/11 11:48:41;;;;;;;;;;;33.30;72.60;;;;;;4845453;29;20365;-42
2022/08/11 11:51:07;;;;;;;;;;;33.40;71.80;;;;;;4851371;29;19912;-38
2022/08/11 11:53:33;;;;;;;;;;;33.40;73.00;;;;;;4844297;29;20264;-37
2022/08/11 11:55:59;;;;;;;;;;;33.50;73.40;;;;;;4838962;29;20740;-38
2022/08/11 12:01:14;;;;;;;;;;;33.60;72.00;;;;;;4846708;29;20012;-39
2022/08/11 12:03:42;;;;;;;;;;;33.20;72.80;;;;;;4839256;29;20011;-37
2022/08/11 12:06:08;;;;;;;;;;;33.30;72.60;;;;;;4841737;29;19928;-42
2022/08/11 12:08:35;;;;;;;;;;;33.50;72.10;;;;;;4829214;29;19965;-38
2022/08/11 12:13:49;;;;;;;;;;;33.80;72.30;;;;;;4855474;29;19923;-40
2022/08/11 12:16:15;;;;;;;;;;;34.00;72.30;;;;;;4838056;29;20358;-36
2022/08/11 12:18:42;;;;;;;;;;;34.20;70.50;;;;;;4841500;29;20011;-51
2022/08/11 12:21:08;;;;;;;;;;;34.20;70.10;;;;;;4842572;29;20007;-36
2022/08/11 12:29:05;;;;;;;;;;;34.40;70.10;;;;;;4838908;29;19963;-37
2022/08/11 12:31:34;;;;;;;;;;;34.50;69.90;;;;;;4843257;29;19916;-34
2022/08/11 12:34:01;;;;;;;;;;;34.50;69.40;;;;;;4838286;29;19952;-39
2022/08/11 12:36:26;;;;;;;;;;;34.30;69.70;;;;;;4839498;29;19960;-41
2022/08/11 12:38:53;;;;;;;;;;;34.30;69.70;;;;;;4854846;29;20440;-39
2022/08/11 12:46:48;;;;;;;;;;;34.30;69.70;;;;;;4851345;29;19973;-41
2022/08/11 12:52:04;;;;;;;;;;;34.30;70.70;;;;;;4838636;29;20328;-37
2022/08/11 12:54:40;;;;;;;;;;;34.40;69.90;;;;;;4848024;29;19908;-36
2022/08/11 13:05:24;;;;;;;;;;;34.70;69.00;;;;;;4838150;29;19927;-36
2022/08/11 13:07:50;;;;;;;;;;;34.50;68.90;;;;;;4837284;29;19909;-55
2022/08/11 13:12:46;;;;;;;;;;;34.50;69.90;;;;;;4838277;29;19913;-39
2022/08/11 13:13:04;;;;;;;;;;;34.50;69.60;;;;;;4838300;29;19909;-33
2022/08/11 13:15:30;;;;;;;;;;;34.60;69.00;;;;;;4837350;29;19923;-39
2022/08/11 13:17:56;;;;;;;;;;;34.80;69.90;;;;;;4837850;29;19920;-42
2022/08/11 13:20:22;;;;;;;;;;;34.80;70.10;;;;;;4846295;29;19912;-36
2022/08/11 13:22:49;;;;;;;;;;;34.90;68.60;;;;;;4838295;29;20377;-39
2022/08/11 13:25:17;;;;;;;;;;;34.90;67.90;;;;;;4821051;29;20330;-35
2022/08/11 13:27:46;;;;;;;;;;;34.80;68.30;;;;;;4821374;29;19935;-42
2022/08/11 13:33:00;;;;;;;;;;;34.90;69.10;;;;;;4838608;29;19919;-37
2022/08/11 13:35:27;;;;;;;;;;;35.00;68.90;;;;;;4840379;29;20345;-37
2022/08/11 13:37:53;;;;;;;;;;;35.10;69.00;;;;;;4839434;29;20002;-39
2022/08/11 13:40:19;;;;;;;;;;;35.10;68.60;;;;;;4837958;29;19919;-39
2022/08/11 13:42:45;;;;;;;;;;;35.10;69.50;;;;;;4839430;29;20385;-41
2022/08/11 13:45:11;;;;;;;;;;;34.80;69.00;;;;;;4838960;29;19916;-39
2022/08/11 13:47:37;;;;;;;;;;;34.90;69.30;;;;;;4838623;29;19927;-36
2022/08/11 13:50:04;;;;;;;;;;;34.70;67.30;;;;;;4844203;29;20250;-36
2022/08/11 13:52:30;;;;;;;;;;;34.70;68.60;;;;;;4845449;29;19918;-38
2022/08/11 13:54:56;;;;;;;;;;;34.60;69.10;;;;;;4844614;29;20485;-39
2022/08/11 13:57:22;;;;;;;;;;;34.50;69.30;;;;;;4825299;29;20003;-41
2022/08/11 13:59:52;;;;;;;;;;;34.70;68.60;;;;;;4840838;29;19916;-38
2022/08/11 14:02:20;;;;;;;;;;;34.80;69.10;;;;;;4845361;29;20281;-40
2022/08/11 14:04:53;;;;;;;;;;;34.90;69.20;;;;;;4846220;29;19916;-43
2022/08/11 14:07:23;;;;;;;;;;;34.90;68.10;;;;;;4841827;29;20366;-34
2022/08/11 14:09:54;;;;;;;;;;;35.00;68.50;;;;;;4843981;29;19913;-38
2022/08/11 14:15:09;;;;;;;;;;;34.70;68.00;;;;;;4844271;29;19987;-34
2022/08/11 14:17:37;;;;;;;;;;;34.70;67.50;;;;;;4842014;29;20377;-42
2022/08/11 14:20:05;;;;;;;;;;;34.60;67.70;;;;;;4839976;29;19960;-36
2022/08/11 14:22:32;;;;;;;;;;;34.60;67.80;;;;;;4843374;29;19917;-33
2022/08/11 14:24:57;;;;;;;;;;;34.60;67.70;;;;;;4840402;29;20380;-36
2022/08/11 14:27:25;;;;;;;;;;;34.40;67.50;;;;;;4836234;29;19912;-37
2022/08/11 14:29:53;;;;;;;;;;;34.30;66.90;;;;;;4841616;29;20012;-32
2022/08/11 14:32:19;;;;;;;;;;;34.40;67.50;;;;;;4845842;29;19935;-40
2022/08/11 14:34:44;;;;;;;;;;;34.50;67.10;;;;;;4842537;29;20023;-35
2022/08/11 14:37:11;;;;;;;;;;;34.80;66.20;;;;;;4849150;29;20007;-39
2022/08/11 14:39:39;;;;;;;;;;;35.00;66.80;;;;;;4847217;29;20084;-40
2022/08/11 14:47:03;;;;;;;;;;;35.00;67.30;;;;;;4844115;29;19931;-37
2022/08/11 14:47:48;;;;;;;;;;;35.10;66.80;;;;;;4847657;29;19924;-38
2022/08/11 14:50:17;;;;;;;;;;;34.80;65.80;;;;;;4848391;29;20417;-39
2022/08/11 14:52:46;;;;;;;;;;;34.80;66.90;;;;;;4840330;29;19912;-39
2022/08/11 14:57:56;;;;;;;;;;;34.80;67.40;;;;;;4842650;29;20064;-36
2022/08/11 15:00:22;;;;;;;;;;;34.80;66.30;;;;;;4841487;29;20433;-37
2022/08/11 15:05:32;;;;;;;;;;;34.90;66.30;;;;;;4853581;29;20086;-40
2022/08/11 15:07:58;;;;;;;;;;;35.00;68.00;;;;;;4841054;29;19912;-36
2022/08/11 15:10:24;;;;;;;;;;;35.10;67.40;;;;;;4841647;29;20297;-39
2022/08/11 15:12:50;;;;;;;;;;;35.10;67.20;;;;;;4850308;29;20094;-37
2022/08/11 15:18:09;;;;;;;;;;;34.70;67.60;;;;;;4850557;29;20048;-40
2022/08/11 15:26:05;;;;;;;;;;;34.20;68.20;;;;;;4844105;29;19965;-38
2022/08/11 15:45:46;;;;;;;;;;;33.60;67.70;;;;;;4847537;29;19922;-35
2022/08/11 15:47:58;;;;;;;;;;;33.80;68.50;;;;;;4842737;29;19919;-41
2022/08/11 15:50:28;;;;;;;;;;;33.60;67.50;;;;;;4845624;29;20413;-39
2022/08/11 15:53:02;;;;;;;;;;;33.50;67.70;;;;;;4838426;29;20235;-40
2022/08/11 15:55:28;;;;;;;;;;;33.30;67.80;;;;;;4838712;29;19912;-39
2022/08/11 16:06:09;;;;;;;;;;;32.90;68.30;;;;;;4842406;29;19936;-40
2022/08/11 16:08:35;;;;;;;;;;;33.10;68.80;;;;;;4849860;29;20317;-41
2022/08/11 16:11:01;;;;;;;;;;;32.90;68.30;;;;;;4846185;29;19920;-38
2022/08/11 16:18:47;;;;;;;;;;;32.50;69.80;;;;;;4846236;29;19935;-37
2022/08/11 16:21:15;;;;;;;;;;;32.30;69.70;;;;;;4848576;29;19919;-39
2022/08/11 16:23:43;;;;;;;;;;;32.20;69.60;;;;;;4842519;29;20361;-39
2022/08/11 16:26:09;;;;;;;;;;;32.10;70.30;;;;;;4838842;29;20358;-38
2022/08/11 16:28:35;;;;;;;;;;;31.90;70.10;;;;;;4840263;29;20293;-39
2022/08/11 16:31:01;;;;;;;;;;;31.80;70.60;;;;;;4843506;29;19912;-41
2022/08/11 16:33:27;;;;;;;;;;;31.70;70.30;;;;;;4841632;29;19912;-38
2022/08/11 16:38:41;;;;;;;;;;;31.40;70.60;;;;;;4844736;29;19919;-38
2022/08/11 16:41:11;;;;;;;;;;;31.30;71.00;;;;;;4842467;29;20373;-35
2022/08/11 16:49:23;;;;;;;;;;;31.10;72.20;;;;;;4830682;29;20416;-39
2022/08/11 16:51:49;;;;;;;;;;;30.90;72.10;;;;;;4842262;29;19936;-41
2022/08/11 16:54:15;;;;;;;;;;;30.90;72.20;;;;;;4839432;29;19912;-39
2022/08/11 16:56:49;;;;;;;;;;;30.90;72.30;;;;;;4826230;29;19952;-37
2022/08/11 16:59:17;;;;;;;;;;;30.90;72.40;;;;;;4842325;29;20338;-38
2022/08/11 17:01:48;;;;;;;;;;;30.90;72.00;;;;;;4846659;29;20006;-39
2022/08/11 17:18:39;;;;;;;;;;;30.40;73.20;;;;;;4844372;29;19935;-37
2022/08/11 17:21:03;;;;;;;;;;;30.30;72.60;;;;;;4840649;29;20354;-42
2022/08/11 17:26:23;;;;;;;;;;;30.10;73.40;;;;;;4848801;29;19923;-38
2022/08/11 17:28:51;;;;;;;;;;;30.10;74.00;;;;;;4847761;29;20419;-39
2022/08/11 17:36:50;;;;;;;;;;;30.10;74.70;;;;;;4841431;29;19919;-39
2022/08/11 17:39:15;;;;;;;;;;;30.00;74.30;;;;;;4847423;29;19919;-34
2022/08/11 17:49:58;;;;;;;;;;;29.90;74.50;;;;;;4846030;29;19967;-41
2022/08/11 18:00:57;;;;;;;;;;;29.70;75.20;;;;;;4820857;29;19959;-38
2022/08/11 18:03:31;;;;;;;;;;;29.60;75.70;;;;;;4822969;29;19913;-38
2022/08/11 18:06:01;;;;;;;;;;;29.50;75.70;;;;;;4836636;29;20361;-40
